Time;durP1;ratioP1;P1;durP2;ratioP2;P2;SDS_P1;SDS_P2;PMS_P1;PMS_P2;Temp;Humidity;BMP_temperature;BMP_pressure;BME280_temperature;BME280_humidity;BME280_pressure;Samples;Min_cycle;Max_cycle;Signal;HPM_P1;HPM_P2
2022/03/16 00:01:29;;;;;;;48.73;42.73;;;;;;;7.02;100.00;101065.16;5020487;28;20196;-59
2022/03/16 00:03:55;;;;;;;48.63;41.60;;;;;;;7.01;100.00;101064.31;5020550;28;20196;-58
2022/03/16 00:06:20;;;;;;;49.20;42.00;;;;;;;7.04;100.00;101067.75;5021210;28;20187;-59
2022/03/16 00:08:45;;;;;;;49.43;42.90;;;;;;;7.02;100.00;101067.72;5022837;28;20239;-61
2022/03/16 00:11:11;;;;;;;49.80;44.40;;;;;;;7.03;100.00;101068.63;5017199;28;20299;-58
2022/03/16 00:13:36;;;;;;;51.27;44.33;;;;;;;7.00;100.00;101070.28;5018822;28;20207;-59
2022/03/16 00:16:02;;;;;;;53.43;45.27;;;;;;;6.99;100.00;101073.69;5020176;28;20670;-60
2022/03/16 00:18:27;;;;;;;52.53;43.97;;;;;;;6.98;100.00;101074.53;5017036;28;20212;-57
2022/03/16 00:20:52;;;;;;;51.10;44.10;;;;;;;7.01;100.00;101068.56;5019197;28;20206;-58
2022/03/16 00:23:18;;;;;;;51.90;44.87;;;;;;;7.01;100.00;101071.13;5019577;28;20196;-59
2022/03/16 00:25:43;;;;;;;51.97;44.07;;;;;;;7.01;100.00;101072.03;5021382;28;20194;-58
2022/03/16 00:28:12;;;;;;;48.73;43.43;;;;;;;7.02;100.00;101070.31;5022987;28;21566;-59
2022/03/16 00:30:38;;;;;;;53.67;44.90;;;;;;;7.02;100.00;101065.16;5024969;28;20191;-60
2022/03/16 00:33:03;;;;;;;52.10;43.93;;;;;;;7.01;100.00;101069.44;5018777;28;20191;-59
2022/03/16 00:35:29;;;;;;;53.90;45.90;;;;;;;6.98;100.00;101059.09;5027703;28;20197;-61
2022/03/16 00:37:54;;;;;;;55.50;46.40;;;;;;;6.98;100.00;101061.66;5022383;28;20205;-62
2022/03/16 00:40:20;;;;;;;55.40;46.43;;;;;;;6.98;100.00;101064.25;5025168;28;20223;-59
2022/03/16 00:42:45;;;;;;;54.43;45.43;;;;;;;6.96;100.00;101067.59;5023992;28;20676;-60
2022/03/16 00:45:10;;;;;;;55.70;45.93;;;;;;;6.96;100.00;101060.75;5023413;28;20192;-59
2022/03/16 00:47:38;;;;;;;58.63;46.93;;;;;;;6.97;100.00;101059.03;5019631;28;20618;-58
2022/03/16 00:50:05;;;;;;;56.70;44.87;;;;;;;6.97;100.00;101057.34;5020069;28;20185;-61
2022/03/16 00:52:30;;;;;;;53.33;45.23;;;;;;;6.96;100.00;101062.44;5020135;28;20181;-61
2022/03/16 00:54:55;;;;;;;56.60;45.93;;;;;;;6.96;100.00;101053.03;5022439;28;20253;-58
2022/03/16 00:57:21;;;;;;;56.40;46.00;;;;;;;6.94;100.00;101051.28;5023171;28;20187;-57
2022/03/16 00:59:46;;;;;;;53.40;43.73;;;;;;;6.95;100.00;101043.59;5023295;28;20339;-59
2022/03/16 01:02:11;;;;;;;54.87;45.50;;;;;;;6.94;100.00;101044.44;5021253;28;20524;-60
2022/03/16 01:04:37;;;;;;;53.70;44.93;;;;;;;6.95;100.00;101048.72;5018777;28;20560;-61
2022/03/16 01:07:03;;;;;;;54.97;46.30;;;;;;;6.95;100.00;101048.72;5016507;28;20184;-58
2022/03/16 01:09:29;;;;;;;58.37;47.30;;;;;;;6.99;100.00;101047.97;5037776;28;20719;-60
2022/03/16 01:11:54;;;;;;;55.37;46.00;;;;;;;6.98;100.00;101042.78;5019429;28;20197;-60
2022/03/16 01:14:19;;;;;;;54.10;45.23;;;;;;;6.99;100.00;101045.38;5022109;28;20658;-59
2022/03/16 01:16:45;;;;;;;54.20;46.13;;;;;;;7.00;100.00;101048.81;5021700;28;20213;-59
2022/03/16 01:19:14;;;;;;;56.43;46.70;;;;;;;7.01;100.00;101048.84;5024196;28;20205;-61
2022/03/16 01:21:40;;;;;;;55.43;45.93;;;;;;;7.00;100.00;101048.81;5025729;28;20282;-58
2022/03/16 01:24:06;;;;;;;56.53;45.93;;;;;;;7.00;100.00;101041.97;5024175;28;20193;-59
2022/03/16 01:26:31;;;;;;;53.27;44.27;;;;;;;7.03;100.00;101046.31;5022193;28;20184;-59
2022/03/16 01:28:57;;;;;;;53.60;45.50;;;;;;;7.02;100.00;101044.56;5023973;28;20219;-60
2022/03/16 01:31:22;;;;;;;56.67;44.80;;;;;;;7.01;100.00;101036.00;5026274;28;20560;-58
2022/03/16 01:33:48;;;;;;;58.93;46.50;;;;;;;7.01;100.00;101029.97;5024679;28;20210;-58
2022/03/16 01:36:13;;;;;;;57.77;47.93;;;;;;;6.96;100.00;101031.56;5029561;28;20206;-60
2022/03/16 01:38:38;;;;;;;57.07;45.57;;;;;;;6.95;100.00;101030.72;5030330;28;20552;-62
2022/03/16 01:41:03;;;;;;;60.27;47.43;;;;;;;6.96;100.00;101029.88;5023516;28;20224;-60
2022/03/16 01:43:29;;;;;;;56.50;47.50;;;;;;;6.91;100.00;101021.19;5026795;28;20187;-60
2022/03/16 01:45:54;;;;;;;55.43;45.27;;;;;;;6.90;100.00;101024.63;5024042;28;20286;-61
2022/03/16 01:48:20;;;;;;;59.43;47.47;;;;;;;6.90;100.00;101021.19;5024280;28;20217;-59
2022/03/16 01:50:48;;;;;;;57.90;46.80;;;;;;;6.89;100.00;101020.31;5018399;28;20193;-60
2022/03/16 01:53:14;;;;;;;57.73;46.60;;;;;;;6.89;100.00;101022.03;5029499;28;20833;-58
2022/03/16 01:55:40;;;;;;;61.83;49.03;;;;;;;6.88;100.00;101021.19;5023071;28;20204;-59
2022/03/16 01:58:06;;;;;;;62.93;48.10;;;;;;;6.86;100.00;101022.84;5027469;28;20270;-58
2022/03/16 02:00:31;;;;;;;61.37;48.07;;;;;;;6.84;100.00;101030.53;5026487;28;20209;-58
2022/03/16 02:02:57;;;;;;;63.10;47.73;;;;;;;6.80;100.00;101027.88;5021373;28;20649;-59
2022/03/16 02:05:22;;;;;;;64.17;48.20;;;;;;;6.83;100.00;101026.22;5026902;28;20193;-60
2022/03/16 02:07:48;;;;;;;61.70;47.70;;;;;;;6.81;100.00;101019.31;5023500;28;20234;-58
2022/03/16 02:10:14;;;;;;;63.27;47.70;;;;;;;6.80;100.00;101007.28;5027065;28;20212;-60
2022/03/16 02:12:47;;;;;;;59.57;46.63;;;;;;;6.80;100.00;101013.31;5024817;28;20186;-59
2022/03/16 02:15:12;;;;;;;64.83;48.07;;;;;;;6.78;100.00;101009.84;5028947;28;20273;-57
2022/03/16 02:17:38;;;;;;;60.77;46.07;;;;;;;6.79;100.00;101010.69;5024283;28;20280;-59
2022/03/16 02:20:05;;;;;;;61.37;47.07;;;;;;;6.81;100.00;101014.16;5024005;28;20216;-61
2022/03/16 02:22:34;;;;;;;62.63;47.83;;;;;;;6.78;100.00;101020.13;5026173;28;20188;-59
2022/03/16 02:25:00;;;;;;;64.93;47.50;;;;;;;6.75;100.00;101007.22;5020264;28;20200;-58
2022/03/16 02:27:25;;;;;;;63.30;47.20;;;;;;;6.75;100.00;101003.75;5023747;28;20194;-58
2022/03/16 02:29:51;;;;;;;67.90;48.27;;;;;;;6.73;100.00;101005.47;5022904;28;20239;-60
2022/03/16 02:32:16;;;;;;;63.03;49.57;;;;;;;6.72;100.00;101012.28;5020216;28;20695;-61
2022/03/16 02:34:41;;;;;;;67.47;49.03;;;;;;;6.69;100.00;101009.66;5022550;28;20188;-58
2022/03/16 02:37:07;;;;;;;69.33;50.87;;;;;;;6.66;100.00;101014.75;5018369;28;20185;-59
2022/03/16 02:39:32;;;;;;;72.73;50.73;;;;;;;6.63;100.00;101012.13;5025978;28;20211;-59
2022/03/16 02:41:57;;;;;;;78.00;53.17;;;;;;;6.58;100.00;101012.03;5024738;28;20667;-58
2022/03/16 02:44:23;;;;;;;79.37;52.77;;;;;;;6.54;100.00;101011.09;5025189;28;20474;-59
2022/03/16 02:46:48;;;;;;;76.90;51.97;;;;;;;6.54;100.00;101010.25;5020343;28;20195;-59
2022/03/16 02:49:13;;;;;;;75.40;50.63;;;;;;;6.52;100.00;101017.06;5027279;28;20352;-58
2022/03/16 02:51:39;;;;;;;78.47;52.03;;;;;;;6.52;100.00;101012.78;5028990;28;20267;-59
2022/03/16 02:54:04;;;;;;;73.20;50.67;;;;;;;6.52;100.00;101014.50;5019748;28;20188;-59
2022/03/16 02:56:30;;;;;;;75.63;51.90;;;;;;;6.54;100.00;101020.53;5023183;28;20187;-60
2022/03/16 02:58:56;;;;;;;77.93;52.23;;;;;;;6.55;100.00;101023.13;5018916;28;20207;-59
2022/03/16 03:01:21;;;;;;;78.37;52.97;;;;;;;6.59;100.00;101028.34;5025419;28;20240;-58
2022/03/16 03:03:47;;;;;;;78.83;51.80;;;;;;;6.59;100.00;101026.63;5019805;28;20276;-60
2022/03/16 03:06:12;;;;;;;76.57;50.40;;;;;;;6.60;100.00;101020.63;5016458;28;20554;-58
2022/03/16 03:08:37;;;;;;;80.90;51.83;;;;;;;6.62;100.00;101023.25;5021643;28;20219;-59
2022/03/16 03:11:03;;;;;;;80.63;52.57;;;;;;;6.63;100.00;101017.28;5021069;28;20482;-61
2022/03/16 03:13:28;;;;;;;82.53;53.63;;;;;;;6.63;100.00;101027.56;5025867;28;20203;-60
2022/03/16 03:15:53;;;;;;;84.53;54.63;;;;;;;6.63;100.00;101025.00;5021962;28;20633;-59
2022/03/16 03:18:19;;;;;;;82.00;53.17;;;;;;;6.65;100.00;101029.31;5023025;28;20659;-59
2022/03/16 03:20:44;;;;;;;82.20;52.97;;;;;;;6.64;100.00;101032.72;5022090;28;20695;-60
2022/03/16 03:23:09;;;;;;;84.23;52.23;;;;;;;6.68;100.00;101023.34;5026401;28;20199;-59
2022/03/16 03:25:35;;;;;;;80.40;52.43;;;;;;;6.65;100.00;101026.75;5035980;28;20196;-59
2022/03/16 03:28:00;;;;;;;81.53;52.03;;;;;;;6.69;100.00;101032.81;5015022;28;20213;-59
2022/03/16 03:30:25;;;;;;;81.57;52.33;;;;;;;6.70;100.00;101030.28;5022116;28;20608;-58
2022/03/16 03:32:51;;;;;;;80.00;52.83;;;;;;;6.71;100.00;101029.44;5017990;28;20478;-59
2022/03/16 03:35:16;;;;;;;81.97;53.97;;;;;;;6.71;100.00;101031.13;5021985;28;20189;-59
2022/03/16 03:37:41;;;;;;;79.83;51.77;;;;;;;6.71;100.00;101028.56;5021763;28;20205;-58
2022/03/16 03:40:07;;;;;;;82.70;52.33;;;;;;;6.69;100.00;101032.81;5020241;28;20334;-59
2022/03/16 03:42:33;;;;;;;78.57;52.30;;;;;;;6.69;100.00;101032.81;5022367;28;20222;-58
2022/03/16 03:44:58;;;;;;;91.77;55.13;;;;;;;6.68;100.00;101023.34;5019766;28;20664;-60
2022/03/16 03:47:24;;;;;;;83.27;54.17;;;;;;;6.69;100.00;101020.81;5018713;28;20230;-62
2022/03/16 03:49:49;;;;;;;84.10;53.93;;;;;;;6.69;100.00;101025.09;5022370;28;20267;-59
2022/03/16 03:52:14;;;;;;;86.17;53.13;;;;;;;6.68;100.00;101020.78;5020248;28;20577;-61
2022/03/16 03:54:40;;;;;;;84.53;52.27;;;;;;;6.69;100.00;101020.81;5029662;28;20279;-59
2022/03/16 03:57:06;;;;;;;86.13;53.67;;;;;;;6.71;100.00;101020.84;5021983;28;20470;-59
2022/03/16 03:59:31;;;;;;;84.07;54.17;;;;;;;6.70;100.00;101019.09;5022113;28;20220;-59
2022/03/16 04:01:57;;;;;;;85.63;54.83;;;;;;;6.71;100.00;101023.41;5020565;28;20196;-60
2022/03/16 04:04:23;;;;;;;80.90;52.60;;;;;;;6.69;100.00;101023.41;5028911;28;20654;-59
2022/03/16 04:06:48;;;;;;;82.70;52.70;;;;;;;6.70;100.00;101024.25;5026953;28;20227;-57
2022/03/16 04:09:13;;;;;;;83.07;52.40;;;;;;;6.69;100.00;101036.25;5032494;28;20224;-58
2022/03/16 04:11:39;;;;;;;84.17;52.57;;;;;;;6.69;100.00;101027.66;5040637;28;20643;-61
2022/03/16 04:14:05;;;;;;;82.43;53.40;;;;;;;6.69;100.00;101036.25;5037705;28;20189;-58
2022/03/16 04:16:31;;;;;;;85.40;52.80;;;;;;;6.71;100.00;101031.13;5028609;28;20194;-57
2022/03/16 04:18:57;;;;;;;82.73;53.30;;;;;;;6.72;100.00;101030.31;5023466;28;20628;-57
2022/03/16 04:21:22;;;;;;;83.27;52.50;;;;;;;6.70;100.00;101031.97;5031391;28;20217;-60
2022/03/16 04:23:49;;;;;;;80.83;52.63;;;;;;;6.72;100.00;101027.72;5036008;28;20190;-57
2022/03/16 04:26:14;;;;;;;81.40;51.63;;;;;;;6.73;100.00;101041.47;5025067;28;20192;-59
2022/03/16 04:28:40;;;;;;;87.07;54.13;;;;;;;6.73;100.00;101033.75;5018428;28;20631;-60
2022/03/16 04:31:05;;;;;;;82.97;51.50;;;;;;;6.72;100.00;101035.44;5025734;28;20198;-59
2022/03/16 04:33:31;;;;;;;85.93;53.83;;;;;;;6.71;100.00;101033.72;5025903;28;20220;-60
2022/03/16 04:35:56;;;;;;;79.27;51.07;;;;;;;6.69;100.00;101025.97;5021072;28;20239;-61
2022/03/16 04:38:22;;;;;;;85.07;53.33;;;;;;;6.67;100.00;101031.91;5028150;28;20214;-58
2022/03/16 04:40:47;;;;;;;85.23;52.93;;;;;;;6.67;100.00;101029.34;5032600;28;20206;-58
2022/03/16 04:43:13;;;;;;;84.43;51.90;;;;;;;6.63;100.00;101022.41;5033416;28;20197;-60
2022/03/16 04:45:39;;;;;;;85.63;54.10;;;;;;;6.63;100.00;101028.41;5032935;28;20675;-57
2022/03/16 04:48:11;;;;;;;89.47;52.40;;;;;;;6.61;100.00;101024.09;5034175;28;20556;-59
2022/03/16 04:50:37;;;;;;;87.20;52.03;;;;;;;6.55;100.00;101043.69;5046414;28;20188;-60
2022/03/16 04:53:03;;;;;;;89.90;52.87;;;;;;;6.55;100.00;101032.56;5031863;28;20187;-58
2022/03/16 04:55:28;;;;;;;88.63;53.57;;;;;;;6.53;100.00;101031.66;5035545;28;20197;-58
2022/03/16 04:57:54;;;;;;;89.97;53.43;;;;;;;6.51;100.00;101035.91;5031716;28;20246;-60
2022/03/16 05:00:20;;;;;;;91.60;53.53;;;;;;;6.49;100.00;101038.44;5038522;28;20218;-60
2022/03/16 05:02:46;;;;;;;91.90;55.30;;;;;;;6.48;100.00;101028.13;5030771;28;20229;-59
2022/03/16 05:05:11;;;;;;;89.97;53.73;;;;;;;6.44;100.00;101029.78;5025216;28;20197;-60
2022/03/16 05:07:38;;;;;;;88.97;53.70;;;;;;;6.40;100.00;101041.69;5028292;28;20200;-59
2022/03/16 05:10:05;;;;;;;91.10;54.00;;;;;;;6.38;100.00;101037.34;5026992;28;20184;-58
2022/03/16 05:12:37;;;;;;;87.10;52.23;;;;;;;6.36;100.00;101031.31;5034849;28;20587;-59
2022/03/16 05:15:04;;;;;;;94.87;57.20;;;;;;;6.34;100.00;101022.72;5028485;28;20188;-58
2022/03/16 05:17:29;;;;;;;92.23;54.53;;;;;;;6.30;100.00;101029.47;5032767;28;20191;-58
2022/03/16 05:19:55;;;;;;;94.63;56.57;;;;;;;6.30;100.00;101034.63;5028059;28;20556;-59
2022/03/16 05:22:20;;;;;;;97.07;57.03;;;;;;;6.32;100.00;101032.94;5029972;28;20231;-61
2022/03/16 05:24:45;;;;;;;96.77;56.20;;;;;;;6.29;100.00;101032.88;5033290;28;20188;-57
2022/03/16 05:27:11;;;;;;;99.33;58.50;;;;;;;6.30;100.00;101036.34;5032465;28;20197;-58
2022/03/16 05:29:36;;;;;;;95.10;56.13;;;;;;;6.30;100.00;101044.03;5034422;28;20306;-56
2022/03/16 05:32:02;;;;;;;97.13;57.10;;;;;;;6.28;100.00;101041.44;5035067;28;20212;-58
2022/03/16 05:34:28;;;;;;;98.17;58.60;;;;;;;6.24;100.00;101037.94;5037419;28;20354;-58
2022/03/16 05:36:53;;;;;;;98.97;57.87;;;;;;;6.23;100.00;101043.91;5036542;28;20193;-58
2022/03/16 05:39:18;;;;;;;97.33;57.80;;;;;;;6.24;100.00;101039.66;5033166;28;20244;-58
2022/03/16 05:41:44;;;;;;;99.27;58.67;;;;;;;6.24;100.00;101053.34;5027121;28;20200;-61
2022/03/16 05:44:10;;;;;;;94.80;55.70;;;;;;;6.27;100.00;101052.56;5028339;28;20183;-59
2022/03/16 05:46:35;;;;;;;96.37;58.07;;;;;;;6.25;100.00;101049.94;5032459;28;20186;-60
2022/03/16 05:49:00;;;;;;;96.80;57.60;;;;;;;6.27;100.00;101054.25;5020609;28;20271;-59
2022/03/16 05:51:27;;;;;;;91.13;55.47;;;;;;;6.30;100.00;101039.75;5018415;28;20179;-59
2022/03/16 05:53:52;;;;;;;95.30;55.97;;;;;;;6.30;100.00;101039.75;5026016;28;20237;-59
2022/03/16 05:56:18;;;;;;;91.23;55.80;;;;;;;6.34;100.00;101048.44;5027475;28;20189;-62
2022/03/16 05:58:43;;;;;;;84.57;54.17;;;;;;;6.35;100.00;101048.44;5025967;28;20215;-58
2022/03/16 06:01:08;;;;;;;93.80;56.10;;;;;;;6.38;100.00;101045.06;5021264;28;20698;-58
2022/03/16 06:03:34;;;;;;;99.00;56.30;;;;;;;6.41;100.00;101042.56;5024216;28;20270;-60
2022/03/16 06:06:00;;;;;;;86.83;50.97;;;;;;;6.45;100.00;101057.22;5023135;28;20779;-61
2022/03/16 06:08:25;;;;;;;89.87;54.13;;;;;;;6.48;100.00;101046.13;5021443;28;20217;-59
2022/03/16 06:10:50;;;;;;;86.83;53.87;;;;;;;6.51;100.00;101046.19;5026043;28;20536;-60
2022/03/16 06:13:17;;;;;;;84.17;52.13;;;;;;;6.54;100.00;101043.69;5026375;28;20202;-57
2022/03/16 06:15:43;;;;;;;79.93;50.67;;;;;;;6.60;100.00;101050.66;5026407;28;20196;-58
2022/03/16 06:18:11;;;;;;;82.20;52.27;;;;;;;6.64;100.00;101053.31;5023670;28;20216;-61
2022/03/16 06:20:36;;;;;;;83.63;53.57;;;;;;;6.67;100.00;101044.78;5034469;28;20220;-58
2022/03/16 06:23:05;;;;;;;78.80;52.90;;;;;;;6.73;100.00;101055.19;5026706;28;20636;-59
2022/03/16 06:25:34;;;;;;;77.93;53.63;;;;;;;6.76;100.00;101049.22;5025606;28;20194;-58
2022/03/16 06:28:00;;;;;;;74.90;50.83;;;;;;;6.80;100.00;101049.34;5021042;28;20672;-58
2022/03/16 06:30:26;;;;;;;75.67;50.50;;;;;;;6.84;100.00;101055.41;5021092;28;20524;-58
2022/03/16 06:32:51;;;;;;;71.27;49.17;;;;;;;6.88;100.00;101058.88;5020195;28;20216;-61
2022/03/16 06:35:17;;;;;;;69.27;47.23;;;;;;;6.94;100.00;101064.16;5032180;28;20199;-60
2022/03/16 06:37:43;;;;;;;70.10;47.17;;;;;;;6.99;100.00;101071.13;5026779;28;20251;-57
2022/03/16 06:40:10;;;;;;;71.00;48.93;;;;;;;7.07;100.00;101067.81;5042192;28;20266;-58
2022/03/16 06:42:50;;;;;;;64.30;46.47;;;;;;;7.12;100.00;101071.34;5041669;28;20185;-60
2022/03/16 06:45:16;;;;;;;64.60;45.23;;;;;;;7.16;100.00;101066.28;5040138;28;20188;-59
2022/03/16 06:47:42;;;;;;;63.23;44.97;;;;;;;7.25;100.00;101068.13;5036669;28;20189;-60
2022/03/16 06:50:08;;;;;;;61.10;44.23;;;;;;;7.32;100.00;101082.88;5040665;28;20195;-60
2022/03/16 06:52:34;;;;;;;63.83;46.63;;;;;;;7.35;100.00;101083.72;5028267;28;20196;-59
2022/03/16 06:54:59;;;;;;;59.43;43.37;;;;;;;7.41;100.00;101086.44;5031421;28;20214;-57
2022/03/16 06:57:24;;;;;;;59.53;43.70;;;;;;;7.44;100.00;101087.34;5031674;28;20301;-58
2022/03/16 06:59:50;;;;;;;54.47;41.60;;;;;;;7.49;100.00;101084.81;5044613;28;20219;-58
2022/03/16 07:02:16;;;;;;;56.17;43.00;;;;;;;7.58;100.00;101092.72;5042987;28;20676;-59
2022/03/16 07:04:41;;;;;;;53.90;42.43;;;;;;;7.64;100.00;101091.97;5031540;28;20201;-58
2022/03/16 07:07:07;;;;;;;53.53;41.20;;;;;;;7.66;100.00;101087.69;5030488;28;20186;-59
2022/03/16 07:09:32;;;;;;;50.83;40.13;;;;;;;7.72;100.00;101089.50;5025693;28;20244;-57
2022/03/16 07:11:58;;;;;;;51.37;41.10;;;;;;;7.75;100.00;101089.56;5022934;28;20245;-59
2022/03/16 07:14:33;;;;;;;53.73;42.23;;;;;;;7.82;100.00;101085.38;5030987;28;20197;-57
2022/03/16 07:16:59;;;;;;;51.47;39.43;;;;;;;7.92;100.00;101089.81;5022777;28;20251;-59
2022/03/16 07:19:25;;;;;;;47.73;38.63;;;;;;;7.98;100.00;101089.03;5018354;28;20245;-58
2022/03/16 07:21:50;;;;;;;48.00;39.87;;;;;;;8.00;100.00;101095.97;5019555;28;20282;-58
2022/03/16 07:24:16;;;;;;;47.50;38.20;;;;;;;8.07;100.00;101095.19;5028742;28;20865;-59
2022/03/16 07:26:42;;;;;;;47.93;39.63;;;;;;;8.10;100.00;101099.50;5032025;28;20203;-60
2022/03/16 07:29:08;;;;;;;46.73;38.63;;;;;;;8.09;100.00;101103.81;5029327;28;20206;-59
2022/03/16 07:31:34;;;;;;;48.33;39.80;;;;;;;8.16;100.00;101102.19;5022430;28;20611;-60
2022/03/16 07:34:00;;;;;;;44.83;37.23;;;;;;;8.21;100.00;101112.56;5022983;28;20198;-59
2022/03/16 07:36:26;;;;;;;48.50;39.73;;;;;;;8.27;100.00;101114.34;5037500;28;20197;-60
2022/03/16 07:38:51;;;;;;;45.27;37.50;;;;;;;8.23;100.00;101113.44;5027152;28;20210;-58
2022/03/16 07:41:17;;;;;;;42.67;37.40;;;;;;;8.31;100.00;101113.56;5030279;28;20221;-59
2022/03/16 07:43:42;;;;;;;45.33;37.20;;;;;;;8.35;100.00;101117.91;5031229;28;20212;-59
2022/03/16 07:46:08;;;;;;;45.03;36.83;;;;;;;8.34;100.00;101117.03;5028128;28;20201;-59
2022/03/16 07:48:34;;;;;;;45.37;36.93;;;;;;;8.37;100.00;101114.50;5032029;28;20691;-58
2022/03/16 07:51:01;;;;;;;44.37;37.23;;;;;;;8.46;100.00;101112.91;5028865;28;20230;-58
2022/03/16 07:53:27;;;;;;;47.33;37.83;;;;;;;8.49;100.00;101103.53;5031350;28;20202;-58
2022/03/16 07:55:55;;;;;;;45.93;37.53;;;;;;;8.51;100.00;101098.38;5034274;28;20216;-59
2022/03/16 07:58:21;;;;;;;42.27;35.73;;;;;;;8.54;100.00;101101.88;5029905;28;20221;-60
2022/03/16 08:00:46;;;;;;;42.00;35.90;;;;;;;8.66;100.00;101098.56;5034924;28;20213;-57
2022/03/16 08:03:13;;;;;;;46.57;37.60;;;;;;;8.74;100.00;101101.22;5035080;28;20276;-59
2022/03/16 08:05:39;;;;;;;44.23;36.07;;;;;;;8.83;100.00;101100.47;5029718;28;20632;-59
2022/03/16 08:08:05;;;;;;;41.30;36.47;;;;;;;8.96;100.00;101094.59;5037935;28;20209;-58
2022/03/16 08:10:30;;;;;;;42.43;36.03;;;;;;;8.95;100.00;101098.03;5030370;28;20192;-58
2022/03/16 08:12:56;;;;;;;42.20;36.40;;;;;;;9.10;100.00;101093.88;5032301;28;20191;-59
2022/03/16 08:15:21;;;;;;;41.93;35.47;;;;;;;9.17;100.00;101102.53;5030371;28;20194;-59
2022/03/16 08:17:46;;;;;;;40.50;35.23;;;;;;;9.27;100.00;101097.47;5031809;28;20221;-58
2022/03/16 08:20:12;;;;;;;39.00;34.77;;;;;;;9.39;100.00;101095.84;5035546;28;20230;-59
2022/03/16 08:22:38;;;;;;;40.50;35.63;;;;;;;9.40;100.00;101088.13;5030851;28;20636;-59
2022/03/16 08:25:09;;;;;;;37.80;33.70;;;;;;;9.48;100.00;101087.31;5036701;28;20651;-59
2022/03/16 08:27:35;;;;;;;38.10;34.00;;;;;;;9.60;100.00;101080.53;5030207;28;20194;-60
2022/03/16 08:30:01;;;;;;;40.90;34.97;;;;;;;9.70;100.00;101081.50;5039118;28;20192;-59
2022/03/16 08:32:27;;;;;;;39.53;33.97;;;;;;;9.85;100.00;101079.88;5038397;28;20184;-58
2022/03/16 08:34:53;;;;;;;38.17;33.30;;;;;;;9.89;100.00;101081.63;5036080;28;20289;-59
2022/03/16 08:37:19;;;;;;;41.93;34.47;;;;;;;10.00;100.00;101077.38;5025594;28;20215;-58
2022/03/16 08:39:46;;;;;;;39.33;33.50;;;;;;;10.16;100.00;101080.91;5025411;28;20660;-59
2022/03/16 08:42:12;;;;;;;36.67;32.67;;;;;;;10.30;100.00;101081.00;5032981;28;20290;-58
2022/03/16 08:44:39;;;;;;;37.37;33.20;;;;;;;10.46;100.00;101088.84;5028618;28;20282;-59
2022/03/16 08:47:05;;;;;;;36.47;32.53;;;;;;;10.61;100.00;101085.44;5023308;28;20233;-61
2022/03/16 08:49:31;;;;;;;38.47;33.53;;;;;;;10.58;100.00;101080.28;5024822;28;20224;-60
2022/03/16 08:51:57;;;;;;;38.27;32.90;;;;;;;10.75;100.00;101077.75;5026765;28;20198;-59
2022/03/16 08:54:23;;;;;;;39.27;33.63;;;;;;;10.74;100.00;101073.44;5018741;28;20219;-59
2022/03/16 08:56:49;;;;;;;38.90;33.57;;;;;;;10.79;100.00;101076.91;5023289;28;20191;-60
2022/03/16 08:59:14;;;;;;;39.57;34.43;;;;;;;11.01;100.00;101069.16;5021428;28;20211;-59
2022/03/16 09:01:40;;;;;;;36.40;32.50;;;;;;;11.16;100.00;101078.69;5020935;28;20246;-59
2022/03/16 09:04:05;;;;;;;37.27;33.13;;;;;;;11.34;100.00;101086.50;5028177;28;20191;-60
2022/03/16 09:06:30;;;;;;;37.73;33.33;;;;;;;11.50;100.00;101081.28;5022056;28;20194;-59
2022/03/16 09:08:56;;;;;;;38.00;32.43;;;;;;;11.65;100.00;101081.28;5021527;28;20217;-59
2022/03/16 09:11:21;;;;;;;36.07;32.07;;;;;;;11.69;100.00;101083.03;5019926;28;20259;-61
2022/03/16 09:13:47;;;;;;;37.47;33.43;;;;;;;11.74;100.00;101083.91;5019728;28;20263;-57
2022/03/16 09:16:14;;;;;;;35.60;30.53;;;;;;;11.85;100.00;101070.03;5025382;28;20212;-59
2022/03/16 09:18:39;;;;;;;38.00;33.20;;;;;;;11.93;100.00;101083.00;5027021;28;20516;-60
2022/03/16 09:21:06;;;;;;;37.77;32.83;;;;;;;11.85;100.00;101072.63;5024341;28;20222;-61
2022/03/16 09:23:32;;;;;;;36.67;32.00;;;;;;;11.92;100.00;101076.06;5016254;28;20201;-61
2022/03/16 09:25:59;;;;;;;37.50;33.60;;;;;;;12.07;100.00;101070.88;5023118;28;20195;-61
2022/03/16 09:28:24;;;;;;;34.40;30.80;;;;;;;12.24;100.00;101062.19;5023543;28;20350;-59
2022/03/16 09:30:49;;;;;;;35.17;31.50;;;;;;;12.23;100.00;101060.47;5021488;28;20271;-57
2022/03/16 09:33:15;;;;;;;34.73;30.57;;;;;;;12.24;100.00;101060.47;5022193;28;20675;-59
2022/03/16 09:35:40;;;;;;;34.43;30.67;;;;;;;12.47;100.00;101046.53;5025926;28;20196;-61
2022/03/16 09:38:06;;;;;;;35.87;31.97;;;;;;;12.56;100.00;101053.41;5024961;28;20619;-57
2022/03/16 09:40:34;;;;;;;34.70;30.50;;;;;;;12.74;100.00;101039.44;5017013;28;20218;-58
2022/03/16 09:42:59;;;;;;;33.63;30.07;;;;;;;12.73;100.00;101041.19;5031841;28;20204;-59
2022/03/16 09:45:29;;;;;;;34.37;30.73;;;;;;;12.82;100.00;101042.88;5033527;28;20195;-59
2022/03/16 09:47:55;;;;;;;34.93;30.33;;;;;;;13.00;100.00;101041.03;5024592;28;20222;-60
2022/03/16 09:50:20;;;;;;;33.20;29.70;;;;;;;12.73;100.00;101032.53;5020580;28;20197;-60
2022/03/16 09:52:47;;;;;;;36.57;31.60;;;;;;;12.79;100.00;101030.75;5024321;28;20191;-59
2022/03/16 09:55:17;;;;;;;33.17;29.57;;;;;;;12.82;100.00;101029.91;5024229;28;20614;-60
2022/03/16 09:57:43;;;;;;;36.83;31.00;;;;;;;12.86;100.00;101030.72;5026581;28;20615;-61
2022/03/16 10:00:12;;;;;;;34.13;30.40;;;;;;;12.74;100.00;101016.97;5025802;28;20209;-59
2022/03/16 10:02:38;;;;;;;33.53;29.93;;;;;;;12.92;100.00;101025.50;5030833;28;20203;-59
2022/03/16 10:05:07;;;;;;;36.63;30.93;;;;;;;13.10;100.00;101022.75;5024812;28;20558;-61
2022/03/16 10:07:34;;;;;;;35.17;31.37;;;;;;;12.97;100.00;101013.34;5020329;28;20249;-59
2022/03/16 10:15:27;;;;;;;35.97;29.80;;;;;;;12.96;100.00;101014.19;5024157;28;20241;-58
2022/03/16 10:17:55;;;;;;;33.83;30.33;;;;;;;13.03;100.00;101015.91;5029018;28;20225;-59
2022/03/16 10:20:29;;;;;;;35.70;31.70;;;;;;;13.08;100.00;101011.50;5019604;28;20240;-59
2022/03/16 10:22:56;;;;;;;36.03;31.53;;;;;;;13.16;100.00;101014.03;5026813;28;20247;-59
2022/03/16 10:25:23;;;;;;;37.80;32.13;;;;;;;13.23;100.00;101009.69;5027162;28;20220;-59
2022/03/16 10:27:48;;;;;;;34.90;31.00;;;;;;;13.27;100.00;101009.66;5022662;28;20288;-58
2022/03/16 10:30:14;;;;;;;35.97;31.93;;;;;;;13.29;100.00;101008.78;5023711;28;20865;-60
2022/03/16 10:32:52;;;;;;;36.57;30.83;;;;;;;13.22;100.00;101008.81;5027459;28;20544;-59
2022/03/16 10:35:17;;;;;;;34.37;30.67;;;;;;;13.45;100.00;100996.50;5023897;28;20268;-60
2022/03/16 10:37:43;;;;;;;35.47;31.63;;;;;;;13.26;100.00;101000.13;5026954;28;20731;-58
2022/03/16 10:40:17;;;;;;;42.27;33.63;;;;;;;13.29;100.00;100999.22;5029809;28;20211;-57
2022/03/16 10:48:24;;;;;;;35.93;31.53;;;;;;;13.24;100.00;100996.66;5017263;28;20638;-59
2022/03/16 10:50:56;;;;;;;37.90;33.83;;;;;;;13.31;100.00;100987.06;5024395;28;20705;-59
2022/03/16 10:53:28;;;;;;;34.07;30.43;;;;;;;13.43;100.00;100982.66;5023729;28;20643;-59
2022/03/16 10:55:56;;;;;;;36.30;30.87;;;;;;;13.58;100.00;100995.50;5023957;28;20221;-62
2022/03/16 10:58:23;;;;;;;35.33;31.50;;;;;;;13.71;100.00;100985.84;5021817;28;20210;-60
2022/03/16 11:00:51;;;;;;;33.33;29.83;;;;;;;13.74;100.00;100993.63;5026669;28;20240;-58
2022/03/16 11:03:22;;;;;;;37.47;32.30;;;;;;;13.78;100.00;100987.50;5023453;28;20195;-59
2022/03/16 11:05:48;;;;;;;35.67;31.93;;;;;;;13.74;100.00;100992.75;5021500;28;21690;-58
2022/03/16 11:08:15;;;;;;;35.63;31.93;;;;;;;13.76;100.00;100996.19;5023167;28;20207;-61
2022/03/16 11:10:42;;;;;;;35.67;30.77;;;;;;;13.74;100.00;100988.44;5021452;28;20659;-59
2022/03/16 11:15:56;;;;;;;34.43;30.17;;;;;;;13.90;100.00;100981.31;5022065;28;20751;-59